createdAt,value
2022-10-01T00:00:07.763Z,62.94
2022-10-01T00:01:07.818Z,60.09
2022-10-01T00:02:07.757Z,60.73
2022-10-01T00:03:07.841Z,62.23
2022-10-01T00:04:07.732Z,62.33
2022-10-01T00:05:07.717Z,63.65
2022-10-01T00:06:07.705Z,63.41
2022-10-01T00:07:07.685Z,62.17
2022-10-01T00:08:07.677Z,65.13
2022-10-01T00:09:07.669Z,65.11
2022-10-01T00:10:07.656Z,63.08
2022-10-01T00:11:07.677Z,62.33
2022-10-01T00:12:07.638Z,63.50
2022-10-01T00:13:07.628Z,62.15
2022-10-01T00:14:07.611Z,62.67
2022-10-01T00:15:08.932Z,63.23
2022-10-01T00:16:07.694Z,59.24
2022-10-01T00:17:07.603Z,61.87
2022-10-01T00:18:07.569Z,60.79
2022-10-01T00:19:07.607Z,61.04
2022-10-01T00:20:13.950Z,60.46
2022-10-01T00:21:09.557Z,59.50
2022-10-01T00:22:07.557Z,60.37
2022-10-01T00:23:07.515Z,59.00
2022-10-01T00:24:07.513Z,61.18
2022-10-01T00:25:07.498Z,60.28
2022-10-01T00:26:07.502Z,60.60
2022-10-01T00:27:07.479Z,58.93
2022-10-01T00:28:07.640Z,59.09
2022-10-01T00:29:07.455Z,60.40
2022-10-01T00:30:07.441Z,60.15
2022-10-01T00:31:07.481Z,60.41
2022-10-01T00:32:07.427Z,61.53
2022-10-01T00:33:07.419Z,60.44
2022-10-01T00:34:07.407Z,60.79
2022-10-01T00:35:07.400Z,61.64
2022-10-01T00:36:07.411Z,60.33
2022-10-01T00:37:07.431Z,60.15
2022-10-01T00:38:07.367Z,61.33
2022-10-01T00:39:07.351Z,60.81
2022-10-01T00:40:07.346Z,61.90
2022-10-01T00:41:07.359Z,60.93
2022-10-01T00:42:07.324Z,60.40
2022-10-01T00:43:07.319Z,62.50
2022-10-01T00:44:07.304Z,61.72
2022-10-01T00:45:07.282Z,60.63
2022-10-01T00:46:07.363Z,61.10
2022-10-01T00:47:07.278Z,62.14
2022-10-01T00:48:07.280Z,63.43
2022-10-01T00:49:07.260Z,61.78
2022-10-01T00:50:07.250Z,62.60
2022-10-01T00:51:07.249Z,61.71
2022-10-01T00:52:07.224Z,62.31
2022-10-01T00:53:07.198Z,61.04
2022-10-01T00:54:08.200Z,63.43
2022-10-01T00:55:07.190Z,61.89
2022-10-01T00:56:07.199Z,61.26
2022-10-01T00:57:07.165Z,63.12
2022-10-01T00:58:07.172Z,63.55
2022-10-01T00:59:07.152Z,60.17
2022-10-01T01:00:07.149Z,62.37
2022-10-01T01:01:07.187Z,61.27
2022-10-01T01:02:07.136Z,61.98
2022-10-01T01:03:07.112Z,61.92
2022-10-01T01:04:07.097Z,60.45
2022-10-01T01:05:07.085Z,61.60
2022-10-01T01:06:07.092Z,61.15
2022-10-01T01:07:07.061Z,62.44
2022-10-01T01:08:07.099Z,61.81
2022-10-01T01:09:07.041Z,62.35
2022-10-01T01:10:07.033Z,63.54
2022-10-01T01:11:07.027Z,62.93
2022-10-01T01:12:07.036Z,62.10
2022-10-01T01:13:07.010Z,61.56
2022-10-01T01:14:07.001Z,62.42
2022-10-01T01:15:06.986Z,63.48
2022-10-01T01:16:06.999Z,62.60
2022-10-01T01:17:06.972Z,63.01
2022-10-01T01:18:06.985Z,62.43
2022-10-01T01:19:06.946Z,63.10
2022-10-01T01:20:06.933Z,60.71
2022-10-01T01:21:06.928Z,62.78
2022-10-01T01:22:06.938Z,64.72
2022-10-01T01:23:06.899Z,62.98
2022-10-01T01:24:06.891Z,61.72
2022-10-01T01:25:06.878Z,61.20
2022-10-01T01:26:06.872Z,61.50
2022-10-01T01:27:06.888Z,62.52
2022-10-01T01:28:06.914Z,61.95
2022-10-01T01:29:06.842Z,60.77
2022-10-01T01:30:06.830Z,62.56
2022-10-01T01:31:06.859Z,61.78
2022-10-01T01:32:09.388Z,60.29
2022-10-01T01:33:06.805Z,61.29
2022-10-01T01:34:06.791Z,62.25
2022-10-01T01:35:06.777Z,62.65
2022-10-01T01:36:06.775Z,61.73
2022-10-01T01:37:06.783Z,62.64
2022-10-01T01:38:06.746Z,63.43
2022-10-01T01:39:06.736Z,62.68
2022-10-01T01:40:06.726Z,62.44
2022-10-01T01:41:06.737Z,61.94
2022-10-01T01:42:06.725Z,61.47
2022-10-01T01:43:06.700Z,58.83
2022-10-01T01:44:06.694Z,60.88
2022-10-01T01:45:06.682Z,59.94
2022-10-01T01:46:06.747Z,61.46
2022-10-01T01:47:06.675Z,60.56
2022-10-01T01:48:06.645Z,59.71
2022-10-01T01:49:06.638Z,60.78
2022-10-01T01:50:06.622Z,60.22
2022-10-01T01:51:06.620Z,62.53
2022-10-01T01:52:06.621Z,61.51
2022-10-01T01:53:06.594Z,61.08
2022-10-01T01:54:06.867Z,60.41
2022-10-01T01:55:07.874Z,61.03
2022-10-01T01:56:06.780Z,59.30
2022-10-01T01:57:06.825Z,59.34
2022-10-01T01:58:08.502Z,60.29
2022-10-01T01:59:06.828Z,61.96
2022-10-01T02:00:06.786Z,61.74
2022-10-01T02:01:07.427Z,61.66
2022-10-01T02:02:07.937Z,60.62
2022-10-01T02:03:06.857Z,63.28
2022-10-01T02:04:06.711Z,60.89
2022-10-01T02:05:06.802Z,61.98
2022-10-01T02:06:06.680Z,61.23
2022-10-01T02:07:09.108Z,63.94
2022-10-01T02:08:07.201Z,60.45
2022-10-01T02:09:06.695Z,60.32
2022-10-01T02:10:07.210Z,62.83
2022-10-01T02:11:06.626Z,63.85
2022-10-01T02:12:07.409Z,60.94
2022-10-01T02:13:08.363Z,61.29
2022-10-01T02:14:06.631Z,62.23
2022-10-01T02:15:07.435Z,60.81
2022-10-01T02:16:06.825Z,61.89
2022-10-01T02:17:07.402Z,62.51
2022-10-01T02:18:07.305Z,59.71
2022-10-01T02:19:07.378Z,62.07
2022-10-01T02:20:07.220Z,60.83
2022-10-01T02:21:06.561Z,62.14
2022-10-01T02:22:06.585Z,62.71
2022-10-01T02:23:38.192Z,62.02
2022-10-01T02:24:06.281Z,61.44
2022-10-01T02:25:06.285Z,62.84
2022-10-01T02:26:06.265Z,61.76
2022-10-01T02:27:06.286Z,63.05
2022-10-01T02:28:06.312Z,62.57
2022-10-01T02:29:06.236Z,61.59
2022-10-01T02:30:06.223Z,61.50
2022-10-01T02:31:06.276Z,63.48
2022-10-01T02:32:06.235Z,62.28
2022-10-01T02:33:06.195Z,62.80
2022-10-01T02:34:09.708Z,62.05
2022-10-01T02:35:08.172Z,62.34
2022-10-01T02:36:06.176Z,62.14
2022-10-01T02:37:06.195Z,63.06
2022-10-01T02:38:06.149Z,62.67
2022-10-01T02:39:06.142Z,61.89
2022-10-01T02:40:06.133Z,61.49
2022-10-01T02:41:06.122Z,62.69
2022-10-01T02:42:06.130Z,61.69
2022-10-01T02:43:06.095Z,63.68
2022-10-01T02:44:06.091Z,63.83
2022-10-01T02:45:06.079Z,61.56
2022-10-01T02:46:06.163Z,62.29
2022-10-01T02:47:06.085Z,63.54
2022-10-01T02:48:06.045Z,61.59
2022-10-01T02:49:06.033Z,61.15
2022-10-01T02:50:06.025Z,61.41
2022-10-01T02:51:06.018Z,62.74
2022-10-01T02:52:06.019Z,59.86
2022-10-01T02:53:06.000Z,61.54
2022-10-01T02:54:05.992Z,62.37
2022-10-01T02:55:05.979Z,60.99
2022-10-01T02:56:05.973Z,63.20
2022-10-01T02:57:05.973Z,62.87
2022-10-01T02:58:05.953Z,61.82
2022-10-01T02:59:05.941Z,61.06
2022-10-01T03:00:05.931Z,61.00
2022-10-01T03:01:05.926Z,60.46
2022-10-01T03:02:06.096Z,61.53
2022-10-01T03:03:05.894Z,60.36
2022-10-01T03:04:05.887Z,62.92
2022-10-01T03:05:05.895Z,61.19
2022-10-01T03:06:05.863Z,59.65
2022-10-01T03:07:05.877Z,59.39
2022-10-01T03:08:05.830Z,61.57
2022-10-01T03:09:05.833Z,61.35
2022-10-01T03:10:05.848Z,63.13
2022-10-01T03:11:05.828Z,61.66
2022-10-01T03:12:05.815Z,62.24
2022-10-01T03:13:05.794Z,62.89
2022-10-01T03:14:05.795Z,61.46
2022-10-01T03:15:05.778Z,62.25
2022-10-01T03:16:05.814Z,63.92
2022-10-01T03:17:05.780Z,59.89
2022-10-01T03:18:05.746Z,60.15
2022-10-01T03:19:05.736Z,60.90
2022-10-01T03:20:05.728Z,61.36
2022-10-01T03:21:05.735Z,61.08
2022-10-01T03:22:05.737Z,60.79
2022-10-01T03:23:05.702Z,61.82
2022-10-01T03:24:05.690Z,61.92
2022-10-01T03:25:05.681Z,61.43
2022-10-01T03:26:05.664Z,62.41
2022-10-01T03:27:05.653Z,63.61
2022-10-01T03:28:05.706Z,61.56
2022-10-01T03:29:05.636Z,61.88
2022-10-01T03:30:05.627Z,61.30
2022-10-01T03:31:05.754Z,62.65
2022-10-01T03:32:05.610Z,60.96
2022-10-01T03:33:05.616Z,62.04
2022-10-01T03:34:05.589Z,61.52
2022-10-01T03:35:05.606Z,61.00
2022-10-01T03:36:05.560Z,61.02
2022-10-01T03:37:05.561Z,60.53
2022-10-01T03:38:05.569Z,60.74
2022-10-01T03:39:05.545Z,59.16
2022-10-01T03:40:05.529Z,61.10
2022-10-01T03:41:05.515Z,62.54
2022-10-01T03:42:05.514Z,62.38
2022-10-01T03:43:05.519Z,63.20
2022-10-01T03:44:05.489Z,62.00
2022-10-01T03:45:05.480Z,59.91
2022-10-01T03:46:05.529Z,61.51
2022-10-01T03:47:05.467Z,61.27
2022-10-01T03:48:05.466Z,60.92
2022-10-01T03:49:05.440Z,60.82
2022-10-01T03:50:05.431Z,61.74
2022-10-01T03:51:05.415Z,63.06
2022-10-01T03:52:06.426Z,61.38
2022-10-01T03:53:05.397Z,61.05
2022-10-01T03:54:05.387Z,61.52
2022-10-01T03:55:05.391Z,60.86
2022-10-01T03:56:05.364Z,60.41
2022-10-01T03:57:05.372Z,61.19
2022-10-01T03:58:05.377Z,62.62
2022-10-01T03:59:05.349Z,61.38
2022-10-01T04:00:05.342Z,59.70
2022-10-01T04:01:05.323Z,62.39
2022-10-01T04:02:05.446Z,61.53
2022-10-01T04:03:05.399Z,62.26
2022-10-01T04:04:05.294Z,61.96
2022-10-01T04:05:05.285Z,62.09
2022-10-01T04:06:05.279Z,61.75
2022-10-01T04:07:05.266Z,61.63
2022-10-01T04:08:05.274Z,60.53
2022-10-01T04:09:05.252Z,61.88
2022-10-01T04:10:05.234Z,62.90
2022-10-01T04:11:05.234Z,63.68
2022-10-01T04:12:05.214Z,64.54
2022-10-01T04:13:05.219Z,63.29
2022-10-01T04:14:05.195Z,63.57
2022-10-01T04:15:05.185Z,62.85
2022-10-01T04:16:05.227Z,63.91
2022-10-01T04:17:05.158Z,64.39
2022-10-01T04:18:05.171Z,64.75
2022-10-01T04:19:05.140Z,63.69
2022-10-01T04:20:05.132Z,63.95
2022-10-01T04:21:05.129Z,64.96
2022-10-01T04:22:05.113Z,64.62
2022-10-01T04:23:05.115Z,64.21
2022-10-01T04:24:05.091Z,63.03
2022-10-01T04:25:05.075Z,63.48
2022-10-01T04:26:05.068Z,63.46
2022-10-01T04:27:05.053Z,64.83
2022-10-01T04:28:06.162Z,64.88
2022-10-01T04:29:05.033Z,65.56
2022-10-01T04:30:05.022Z,64.67
2022-10-01T04:31:05.015Z,63.97
2022-10-01T04:32:05.067Z,64.48
2022-10-01T04:33:04.993Z,63.69
2022-10-01T04:34:04.983Z,64.55
2022-10-01T04:35:05.032Z,64.12
2022-10-01T04:36:04.969Z,64.34
2022-10-01T04:37:04.977Z,65.01
2022-10-01T04:38:04.957Z,64.22
2022-10-01T04:39:04.939Z,63.93
2022-10-01T04:40:04.927Z,64.42
2022-10-01T04:41:04.924Z,64.99
2022-10-01T04:42:04.925Z,64.68
2022-10-01T04:43:04.898Z,63.41
2022-10-01T04:44:04.885Z,65.45
2022-10-01T04:45:04.906Z,64.29
2022-10-01T04:46:04.870Z,63.70
2022-10-01T04:47:04.935Z,63.45
2022-10-01T04:48:04.859Z,62.68
2022-10-01T04:49:04.847Z,63.58
2022-10-01T04:50:04.828Z,63.42
2022-10-01T04:51:04.825Z,65.09
2022-10-01T04:52:04.827Z,64.11
2022-10-01T04:53:04.812Z,62.70
2022-10-01T04:54:04.794Z,63.81
2022-10-01T04:55:04.778Z,63.36
2022-10-01T04:56:04.767Z,63.05
2022-10-01T04:57:04.784Z,62.99
2022-10-01T04:58:04.748Z,64.16
2022-10-01T04:59:04.740Z,63.48
2022-10-01T05:00:04.730Z,63.56
2022-10-01T05:01:04.792Z,63.61
2022-10-01T05:02:04.771Z,63.19
2022-10-01T05:03:04.701Z,63.17
2022-10-01T05:04:04.688Z,62.97
2022-10-01T05:05:04.690Z,63.03
2022-10-01T05:06:04.669Z,62.82
2022-10-01T05:07:04.676Z,62.63
2022-10-01T05:08:04.647Z,62.80
2022-10-01T05:09:04.641Z,62.36
2022-10-01T05:10:04.630Z,61.94
2022-10-01T05:11:04.624Z,62.85
2022-10-01T05:12:04.618Z,63.85
2022-10-01T05:13:04.609Z,63.19
2022-10-01T05:14:04.593Z,64.18
2022-10-01T05:15:04.587Z,62.37
2022-10-01T05:16:04.585Z,62.62
2022-10-01T05:17:04.579Z,62.70
2022-10-01T05:18:04.556Z,61.31
2022-10-01T05:19:04.541Z,63.90
2022-10-01T05:20:04.533Z,64.02
2022-10-01T05:21:04.539Z,63.44
2022-10-01T05:22:04.542Z,62.74
2022-10-01T05:23:04.502Z,62.05
2022-10-01T05:24:04.495Z,62.67
2022-10-01T05:25:04.489Z,62.88
2022-10-01T05:26:04.481Z,65.09
2022-10-01T05:27:04.477Z,64.33
2022-10-01T05:28:04.490Z,63.89
2022-10-01T05:29:04.455Z,63.50
2022-10-01T05:30:04.448Z,63.04
2022-10-01T05:31:04.521Z,63.19
2022-10-01T05:32:04.477Z,62.72
2022-10-01T05:33:04.401Z,62.33
2022-10-01T05:34:04.389Z,63.18
2022-10-01T05:35:04.380Z,61.91
2022-10-01T05:36:04.373Z,62.66
2022-10-01T05:37:04.372Z,62.04
2022-10-01T05:38:04.359Z,62.43
2022-10-01T05:39:04.334Z,62.97
2022-10-01T05:40:04.337Z,63.20
2022-10-01T05:41:04.329Z,62.09
2022-10-01T05:42:06.551Z,63.55
2022-10-01T05:43:05.305Z,62.85
2022-10-01T05:44:04.294Z,63.73
2022-10-01T05:45:04.285Z,61.03
2022-10-01T05:46:04.322Z,61.79
2022-10-01T05:47:04.276Z,61.93
2022-10-01T05:48:04.245Z,62.16
2022-10-01T05:49:04.238Z,61.56
2022-10-01T05:50:04.232Z,62.55
2022-10-01T05:51:04.227Z,63.74
2022-10-01T05:52:04.229Z,61.78
2022-10-01T05:53:04.203Z,61.04
2022-10-01T05:54:04.189Z,62.58
2022-10-01T05:55:04.179Z,62.74
2022-10-01T05:56:04.176Z,62.33
2022-10-01T05:57:04.180Z,61.93
2022-10-01T05:58:04.158Z,62.24
2022-10-01T05:59:04.141Z,62.09
2022-10-01T06:00:04.135Z,61.54
2022-10-01T06:01:04.128Z,62.41
2022-10-01T06:02:04.337Z,63.67
2022-10-01T06:03:04.151Z,63.23
2022-10-01T06:04:04.093Z,61.26
2022-10-01T06:05:04.083Z,62.05
2022-10-01T06:06:04.067Z,62.07
2022-10-01T06:07:04.095Z,62.82
2022-10-01T06:08:04.053Z,62.59
2022-10-01T06:09:04.045Z,62.91
2022-10-01T06:10:04.034Z,62.47
2022-10-01T06:11:04.029Z,63.36
2022-10-01T06:12:04.033Z,63.13
2022-10-01T06:13:04.002Z,63.15
2022-10-01T06:14:03.998Z,62.68
2022-10-01T06:15:03.987Z,63.42
2022-10-01T06:16:03.997Z,62.73
2022-10-01T06:17:03.994Z,63.65
2022-10-01T06:18:03.967Z,64.09
2022-10-01T06:19:03.957Z,63.02
2022-10-01T06:20:03.947Z,63.66
2022-10-01T06:21:03.926Z,63.70
2022-10-01T06:22:03.954Z,63.17
2022-10-01T06:23:03.940Z,62.52
2022-10-01T06:24:03.904Z,63.67
2022-10-01T06:25:04.896Z,62.73
2022-10-01T06:26:03.884Z,62.83
2022-10-01T06:27:03.886Z,63.81
2022-10-01T06:28:03.883Z,63.35
2022-10-01T06:29:03.853Z,62.76
2022-10-01T06:30:03.843Z,62.41
2022-10-01T06:31:03.834Z,63.71
2022-10-01T06:32:03.898Z,62.95
2022-10-01T06:33:03.816Z,62.58
2022-10-01T06:34:03.795Z,62.90
2022-10-01T06:35:03.795Z,62.81
2022-10-01T06:36:03.782Z,62.26
2022-10-01T06:37:03.795Z,62.75
2022-10-01T06:38:03.753Z,62.18
2022-10-01T06:39:03.765Z,63.28
2022-10-01T06:40:03.747Z,63.59
2022-10-01T06:41:03.735Z,64.50
2022-10-01T06:42:03.751Z,64.47
2022-10-01T06:43:03.726Z,64.19
2022-10-01T06:44:03.705Z,63.66
2022-10-01T06:45:03.705Z,63.84
2022-10-01T06:46:03.722Z,63.81
2022-10-01T06:47:03.697Z,64.40
2022-10-01T06:48:03.667Z,62.89
2022-10-01T06:49:03.655Z,63.98
2022-10-01T06:50:03.646Z,64.08
2022-10-01T06:51:03.642Z,64.72
2022-10-01T06:52:03.641Z,64.38
2022-10-01T06:53:03.619Z,64.84
2022-10-01T06:54:03.609Z,63.93
2022-10-01T06:55:03.601Z,64.63
2022-10-01T06:56:03.587Z,63.71
2022-10-01T06:57:03.594Z,63.61
2022-10-01T06:58:03.560Z,64.52
2022-10-01T06:59:03.559Z,64.39
2022-10-01T07:00:03.548Z,65.04
2022-10-01T07:01:03.677Z,65.80
2022-10-01T07:02:03.577Z,66.06
2022-10-01T07:03:03.520Z,66.52
2022-10-01T07:04:03.499Z,66.45
2022-10-01T07:05:03.505Z,65.37
2022-10-01T07:06:03.501Z,65.30
2022-10-01T07:07:03.509Z,64.66
2022-10-01T07:08:03.467Z,65.23
2022-10-01T07:09:03.455Z,65.52
2022-10-01T07:10:03.435Z,64.92
2022-10-01T07:11:03.449Z,64.95
2022-10-01T07:12:03.441Z,63.66
2022-10-01T07:13:03.410Z,64.08
2022-10-01T07:14:03.404Z,64.97
2022-10-01T07:15:03.408Z,64.77
2022-10-01T07:16:03.418Z,64.46
2022-10-01T07:17:03.401Z,64.11
2022-10-01T07:18:03.357Z,64.81
2022-10-01T07:19:03.357Z,64.41
2022-10-01T07:20:03.347Z,64.73
2022-10-01T07:21:03.338Z,64.77
2022-10-01T07:22:03.329Z,65.14
2022-10-01T07:23:03.413Z,65.42
2022-10-01T07:24:03.301Z,64.75
2022-10-01T07:25:03.288Z,65.29
2022-10-01T07:26:04.285Z,64.09
2022-10-01T07:27:07.239Z,64.78
2022-10-01T07:28:04.325Z,64.35
2022-10-01T07:29:03.256Z,65.01
2022-10-01T07:30:03.239Z,65.55
2022-10-01T07:31:03.228Z,65.62
2022-10-01T07:32:03.261Z,64.39
2022-10-01T07:33:03.244Z,64.22
2022-10-01T07:34:03.209Z,65.25
2022-10-01T07:35:03.204Z,64.80
2022-10-01T07:36:03.196Z,66.12
2022-10-01T07:37:03.176Z,64.85
2022-10-01T07:38:04.177Z,65.46
2022-10-01T07:39:03.156Z,66.30
2022-10-01T07:40:07.370Z,65.55
2022-10-01T07:41:04.128Z,65.94
2022-10-01T07:42:03.120Z,65.64
2022-10-01T07:43:03.129Z,64.98
2022-10-01T07:44:03.107Z,65.37
2022-10-01T07:45:03.104Z,65.95
2022-10-01T07:46:03.138Z,65.23
2022-10-01T07:47:03.083Z,65.95
2022-10-01T07:48:03.082Z,65.02
2022-10-01T07:49:03.054Z,65.56
2022-10-01T07:50:03.038Z,65.91
2022-10-01T07:51:03.048Z,65.63
2022-10-01T07:52:03.030Z,65.34
2022-10-01T07:53:03.044Z,64.63
2022-10-01T07:54:03.007Z,65.95
2022-10-01T07:55:03.003Z,65.16
2022-10-01T07:56:02.986Z,64.14
2022-10-01T07:57:02.988Z,65.16
2022-10-01T07:58:02.981Z,65.38
2022-10-01T07:59:02.965Z,66.71
2022-10-01T08:00:02.951Z,65.80
2022-10-01T08:01:02.983Z,65.28
2022-10-01T08:02:02.977Z,65.65
2022-10-01T08:03:02.947Z,65.29
2022-10-01T08:04:02.955Z,65.72
2022-10-01T08:05:02.907Z,65.01
2022-10-01T08:06:02.902Z,65.47
2022-10-01T08:07:02.898Z,65.26
2022-10-01T08:08:02.899Z,66.28
2022-10-01T08:09:02.869Z,66.01
2022-10-01T08:10:02.866Z,65.49
2022-10-01T08:11:02.842Z,65.70
2022-10-01T08:12:02.832Z,66.02
2022-10-01T08:13:02.840Z,65.63
2022-10-01T08:14:02.795Z,66.21
2022-10-01T08:15:03.804Z,67.18
2022-10-01T08:16:02.805Z,65.53
2022-10-01T08:17:02.799Z,65.10
2022-10-01T08:18:02.792Z,65.12
2022-10-01T08:19:02.759Z,65.22
2022-10-01T08:20:02.750Z,64.97
2022-10-01T08:21:02.740Z,66.86
2022-10-01T08:22:02.731Z,65.12
2022-10-01T08:23:02.742Z,65.32
2022-10-01T08:26:39.692Z,65.43
2022-10-01T08:27:39.694Z,65.82
2022-10-01T08:28:39.690Z,64.99
2022-10-01T08:29:39.651Z,65.38
2022-10-01T08:30:39.654Z,65.26
2022-10-01T08:31:39.667Z,65.21
2022-10-01T08:32:39.653Z,65.67
2022-10-01T08:33:39.624Z,65.81
2022-10-01T08:34:39.614Z,65.44
2022-10-01T08:35:39.595Z,66.59
2022-10-01T08:36:39.598Z,65.04
2022-10-01T08:37:39.598Z,66.05
2022-10-01T08:38:39.576Z,65.06
2022-10-01T08:39:39.563Z,65.29
2022-10-01T08:40:39.557Z,66.47
2022-10-01T08:41:39.978Z,64.00
2022-10-01T08:42:39.550Z,64.56
2022-10-01T08:43:39.513Z,65.58
2022-10-01T08:44:39.510Z,65.51
2022-10-01T08:45:39.528Z,65.84
2022-10-01T08:46:39.488Z,65.79
2022-10-01T08:47:39.495Z,64.92
2022-10-01T08:48:39.472Z,65.26
2022-10-01T08:49:39.455Z,66.31
2022-10-01T08:50:39.454Z,65.42
2022-10-01T08:51:39.449Z,66.24
2022-10-01T08:52:40.583Z,65.09
2022-10-01T08:53:40.551Z,66.11
2022-10-01T08:54:40.540Z,65.21
2022-10-01T08:55:40.524Z,65.77
2022-10-01T08:56:40.507Z,64.59
2022-10-01T08:57:40.525Z,65.14
2022-10-01T08:58:40.496Z,64.69
2022-10-01T08:59:40.483Z,65.46
2022-10-01T09:00:40.479Z,65.38
2022-10-01T09:01:40.529Z,64.66
2022-10-01T09:02:40.472Z,64.51
2022-10-01T09:03:40.454Z,65.10
2022-10-01T09:04:41.499Z,65.23
2022-10-01T09:05:40.419Z,64.95
2022-10-01T09:06:40.472Z,64.33
2022-10-01T09:07:40.433Z,66.44
2022-10-01T09:08:40.389Z,65.69
2022-10-01T09:09:40.386Z,65.31
2022-10-01T09:10:40.376Z,65.28
2022-10-01T09:11:40.367Z,64.99
2022-10-01T09:12:40.363Z,65.36
2022-10-01T09:13:40.345Z,65.15
2022-10-01T09:14:40.333Z,65.14
2022-10-01T09:15:40.362Z,70.85
2022-10-01T09:16:40.354Z,65.45
2022-10-01T09:17:40.323Z,66.49
2022-10-01T09:18:40.310Z,65.96
2022-10-01T09:19:40.934Z,65.33
2022-10-01T09:20:41.261Z,65.34
2022-10-01T09:21:40.262Z,65.37
2022-10-01T09:22:40.268Z,65.40
2022-10-01T09:23:40.245Z,65.22
2022-10-01T09:24:40.226Z,65.43
2022-10-01T09:25:40.226Z,65.45
2022-10-01T09:26:40.211Z,64.72
2022-10-01T09:27:40.218Z,65.00
2022-10-01T09:28:40.193Z,65.36
2022-10-01T09:29:40.191Z,65.27
2022-10-01T09:30:40.169Z,65.60
2022-10-01T09:31:40.208Z,64.26
2022-10-01T09:32:40.159Z,65.30
2022-10-01T09:33:40.149Z,65.30
2022-10-01T09:34:40.131Z,65.70
2022-10-01T09:35:40.121Z,64.56
2022-10-01T09:36:40.107Z,64.46
2022-10-01T09:37:40.126Z,64.75
2022-10-01T09:38:40.085Z,65.43
2022-10-01T09:39:40.081Z,64.50
2022-10-01T09:40:40.072Z,66.36
2022-10-01T09:41:40.064Z,65.70
2022-10-01T09:42:40.072Z,65.73
2022-10-01T09:43:40.042Z,66.15
2022-10-01T09:44:40.033Z,65.79
2022-10-01T09:45:40.073Z,66.03
2022-10-01T09:46:40.013Z,65.09
2022-10-01T09:47:40.018Z,64.81
2022-10-01T09:48:39.995Z,65.66
2022-10-01T09:49:39.986Z,65.01
2022-10-01T09:50:39.992Z,69.01
2022-10-01T09:51:40.888Z,66.41
2022-10-01T09:52:40.977Z,65.64
2022-10-01T09:53:39.947Z,65.45
2022-10-01T09:54:39.930Z,65.43
2022-10-01T09:55:39.925Z,65.62
2022-10-01T09:56:39.907Z,65.15
2022-10-01T09:57:39.913Z,65.24
2022-10-01T09:58:39.895Z,65.01
2022-10-01T09:59:39.882Z,64.57
2022-10-01T10:00:39.871Z,64.42
2022-10-01T10:01:39.888Z,65.90
2022-10-01T10:02:43.386Z,65.57
2022-10-01T10:03:40.875Z,65.67
2022-10-01T10:04:39.832Z,66.00
2022-10-01T10:05:39.825Z,65.01
2022-10-01T10:06:39.805Z,64.89
2022-10-01T10:07:39.829Z,65.30
2022-10-01T10:08:39.807Z,65.13
2022-10-01T10:09:39.778Z,64.93
2022-10-01T10:10:39.766Z,65.71
2022-10-01T10:11:39.755Z,65.05
2022-10-01T10:12:39.773Z,65.47
2022-10-01T10:13:39.742Z,65.71
2022-10-01T10:14:39.737Z,64.92
2022-10-01T10:15:39.778Z,65.51
2022-10-01T10:16:39.705Z,65.17
2022-10-01T10:17:39.720Z,64.58
2022-10-01T10:18:39.694Z,65.96
2022-10-01T10:19:39.686Z,66.00
2022-10-01T10:20:39.672Z,65.60
2022-10-01T10:21:39.659Z,65.92
2022-10-01T10:22:39.678Z,66.32
2022-10-01T10:23:39.637Z,66.22
2022-10-01T10:24:39.616Z,66.32
2022-10-01T10:25:39.622Z,67.76
2022-10-01T10:26:39.917Z,65.98
2022-10-01T10:27:39.616Z,65.31
2022-10-01T10:28:43.324Z,65.76
2022-10-01T10:29:40.590Z,65.62
2022-10-01T10:30:39.569Z,65.98
2022-10-01T10:31:39.588Z,65.62
2022-10-01T10:32:39.562Z,64.95
2022-10-01T10:33:39.549Z,64.90
2022-10-01T10:34:39.533Z,65.76
2022-10-01T10:35:39.518Z,64.57
2022-10-01T10:36:39.517Z,64.10
2022-10-01T10:37:39.521Z,65.47
2022-10-01T10:38:39.514Z,65.64
2022-10-01T10:39:39.506Z,65.69
2022-10-01T10:40:39.467Z,65.60
2022-10-01T10:41:39.465Z,65.82
2022-10-01T10:42:39.475Z,65.07
2022-10-01T10:43:39.446Z,64.44
2022-10-01T10:44:39.421Z,65.12
2022-10-01T10:45:39.409Z,65.83
2022-10-01T10:46:45.230Z,65.28
2022-10-01T10:47:41.408Z,65.91
2022-10-01T10:48:39.381Z,64.86
2022-10-01T10:49:39.369Z,64.02
2022-10-01T10:50:39.362Z,65.01
2022-10-01T10:51:39.364Z,64.32
2022-10-01T10:52:41.659Z,64.46
2022-10-01T10:53:40.338Z,65.27
2022-10-01T10:54:39.333Z,65.33
2022-10-01T10:55:39.318Z,64.47
2022-10-01T10:56:39.303Z,63.89
2022-10-01T10:57:39.317Z,63.77
2022-10-01T10:58:39.295Z,63.82
2022-10-01T10:59:39.278Z,65.65
2022-10-01T11:00:39.272Z,64.73
2022-10-01T11:01:39.359Z,63.73
2022-10-01T11:02:39.277Z,64.01
2022-10-01T11:03:39.236Z,64.22
2022-10-01T11:04:39.224Z,63.56
2022-10-01T11:05:39.232Z,64.50
2022-10-01T11:06:39.206Z,64.24
2022-10-01T11:07:39.225Z,64.19
2022-10-01T11:08:39.193Z,64.00
2022-10-01T11:09:39.181Z,64.06
2022-10-01T11:10:39.179Z,64.89
2022-10-01T11:11:39.162Z,63.92
2022-10-01T11:12:39.174Z,64.13
2022-10-01T11:13:39.143Z,64.81
2022-10-01T11:14:39.129Z,63.51
2022-10-01T11:15:39.178Z,64.94
2022-10-01T11:16:39.102Z,64.87
2022-10-01T11:17:40.122Z,63.64
2022-10-01T11:18:39.091Z,63.81
2022-10-01T11:19:39.088Z,65.19
2022-10-01T11:20:39.074Z,63.62
2022-10-01T11:21:39.062Z,64.44
2022-10-01T11:22:39.073Z,64.91
2022-10-01T11:23:39.046Z,63.75
2022-10-01T11:24:39.015Z,64.60
2022-10-01T11:25:39.026Z,65.41
2022-10-01T11:26:39.007Z,64.70
2022-10-01T11:27:39.013Z,64.01
2022-10-01T11:28:38.986Z,64.43
2022-10-01T11:29:38.976Z,64.65
2022-10-01T11:30:38.966Z,64.09
2022-10-01T11:31:38.965Z,65.25
2022-10-01T11:32:39.062Z,64.13
2022-10-01T11:33:38.943Z,63.67
2022-10-01T11:34:38.933Z,65.00
2022-10-01T11:35:38.910Z,64.95
2022-10-01T11:36:38.911Z,64.22
2022-10-01T11:37:38.912Z,66.33
2022-10-01T11:38:38.874Z,66.20
2022-10-01T11:39:39.869Z,63.93
2022-10-01T11:40:38.862Z,63.90
2022-10-01T11:41:38.866Z,64.03
2022-10-01T11:42:38.862Z,64.11
2022-10-01T11:43:38.828Z,64.43
2022-10-01T11:44:38.837Z,63.56
2022-10-01T11:45:38.824Z,63.89
2022-10-01T11:46:39.341Z,64.29
2022-10-01T11:47:38.802Z,64.29
2022-10-01T11:48:38.788Z,63.34
2022-10-01T11:49:38.777Z,63.70
2022-10-01T11:50:39.532Z,63.41
2022-10-01T11:51:39.775Z,63.96
2022-10-01T11:52:38.775Z,63.61
2022-10-01T11:53:38.737Z,64.13
2022-10-01T11:54:38.730Z,64.49
2022-10-01T11:55:38.717Z,65.63
2022-10-01T11:56:38.714Z,66.15
2022-10-01T11:57:38.714Z,64.55
2022-10-01T11:58:38.683Z,65.08
2022-10-01T11:59:38.680Z,64.62
2022-10-01T12:00:38.670Z,64.02
2022-10-01T12:01:38.699Z,63.15
2022-10-01T12:02:38.682Z,64.94
2022-10-01T12:03:38.637Z,63.90
2022-10-01T12:04:38.633Z,62.68
2022-10-01T12:05:38.657Z,64.53
2022-10-01T12:06:38.779Z,68.18
2022-10-01T12:07:38.633Z,66.59
2022-10-01T12:08:38.609Z,67.16
2022-10-01T12:09:38.582Z,67.49
2022-10-01T12:10:38.583Z,67.83
2022-10-01T12:11:38.558Z,64.20
2022-10-01T12:12:38.576Z,63.36
2022-10-01T12:13:38.550Z,66.66
2022-10-01T12:14:38.543Z,66.08
2022-10-01T12:15:38.535Z,65.46
2022-10-01T12:16:39.086Z,64.98
2022-10-01T12:17:38.535Z,64.06
2022-10-01T12:18:38.497Z,64.15
2022-10-01T12:19:38.484Z,64.10
2022-10-01T12:20:38.483Z,63.97
2022-10-01T12:21:38.480Z,64.35
2022-10-01T12:22:38.477Z,65.24
2022-10-01T12:23:38.456Z,64.32
2022-10-01T12:24:38.441Z,65.26
2022-10-01T12:25:38.432Z,63.51
2022-10-01T12:26:38.487Z,68.76
2022-10-01T12:27:38.414Z,65.05
2022-10-01T12:28:38.419Z,64.48
2022-10-01T12:29:38.397Z,62.91
2022-10-01T12:30:38.380Z,64.71
2022-10-01T12:31:38.527Z,63.97
2022-10-01T12:32:38.363Z,63.10
2022-10-01T12:33:38.370Z,64.10
2022-10-01T12:34:38.337Z,65.29
2022-10-01T12:35:38.336Z,64.46
2022-10-01T12:36:38.322Z,62.47
2022-10-01T12:37:38.310Z,62.54
2022-10-01T12:38:38.325Z,63.87
2022-10-01T12:39:38.296Z,65.94
2022-10-01T12:40:38.279Z,67.64
2022-10-01T12:41:38.280Z,65.27
2022-10-01T12:42:38.263Z,65.10
2022-10-01T12:43:38.278Z,65.38
2022-10-01T12:44:38.251Z,64.49
2022-10-01T12:45:38.233Z,66.63
2022-10-01T12:46:38.646Z,62.89
2022-10-01T12:47:38.231Z,62.43
2022-10-01T12:48:38.224Z,63.79
2022-10-01T12:49:38.196Z,62.41
2022-10-01T12:50:38.178Z,62.38
2022-10-01T12:51:38.173Z,62.07
2022-10-01T12:52:38.164Z,63.57
2022-10-01T12:53:38.164Z,69.23
2022-10-01T12:54:38.130Z,67.08